Time;durP1;ratioP1;P1;durP2;ratioP2;P2;SDS_P1;SDS_P2;PMS_P1;PMS_P2;Temp;Humidity;BMP_temperature;BMP_pressure;BME280_temperature;BME280_humidity;BME280_pressure;Samples;Min_cycle;Max_cycle;Signal;HPM_P1;HPM_P2
2024/04/19 00:00:42;;;;;;;;;;;17.70;52.30;;;;;;5487975;26;19996;-72
2024/04/19 00:03:08;;;;;;;;;;;17.80;52.30;;;;;;5488038;26;19936;-71
2024/04/19 00:05:39;;;;;;;;;;;17.80;52.10;;;;;;5487235;26;19964;-71
2024/04/19 00:08:05;;;;;;;;;;;17.90;52.40;;;;;;5487205;26;20274;-71
2024/04/19 00:10:33;;;;;;;;;;;17.90;52.30;;;;;;5486268;26;19928;-71
2024/04/19 00:13:00;;;;;;;;;;;17.70;52.50;;;;;;5488173;26;19967;-71
2024/04/19 00:15:26;;;;;;;;;;;17.70;52.60;;;;;;5487987;26;20260;-72
2024/04/19 00:17:51;;;;;;;;;;;17.80;52.40;;;;;;5487979;26;19935;-72
2024/04/19 00:20:17;;;;;;;;;;;17.70;52.70;;;;;;5487791;26;19935;-72
2024/04/19 00:22:43;;;;;;;;;;;17.70;52.80;;;;;;5487882;26;19939;-72
2024/04/19 00:25:09;;;;;;;;;;;17.70;52.70;;;;;;5488150;26;19940;-72
2024/04/19 00:27:35;;;;;;;;;;;17.60;53.00;;;;;;5488251;26;19928;-72
2024/04/19 00:30:02;;;;;;;;;;;17.70;53.00;;;;;;5487748;26;19935;-71
2024/04/19 00:32:27;;;;;;;;;;;17.70;53.10;;;;;;5487791;26;19928;-71
2024/04/19 00:34:53;;;;;;;;;;;17.70;52.90;;;;;;5487539;26;19935;-71
2024/04/19 00:37:19;;;;;;;;;;;17.70;53.20;;;;;;5487701;26;19952;-72
2024/04/19 00:39:45;;;;;;;;;;;17.70;52.90;;;;;;5487610;26;20423;-72
2024/04/19 00:42:11;;;;;;;;;;;17.70;53.00;;;;;;5488089;26;19928;-72
2024/04/19 00:44:37;;;;;;;;;;;17.70;53.00;;;;;;5487665;26;19928;-72
2024/04/19 00:47:03;;;;;;;;;;;17.70;53.20;;;;;;5487363;26;19994;-72
2024/04/19 00:49:30;;;;;;;;;;;17.70;53.00;;;;;;5487372;26;19936;-71
2024/04/19 00:51:56;;;;;;;;;;;17.50;53.80;;;;;;5487576;26;19936;-72
2024/04/19 00:54:22;;;;;;;;;;;17.70;52.70;;;;;;5487129;26;19928;-72
2024/04/19 00:56:48;;;;;;;;;;;17.70;53.20;;;;;;5487553;26;19935;-72
2024/04/19 00:59:15;;;;;;;;;;;17.60;52.70;;;;;;5487309;26;19935;-72
2024/04/19 01:01:41;;;;;;;;;;;17.60;53.00;;;;;;5487173;26;20266;-71
2024/04/19 01:04:07;;;;;;;;;;;17.70;53.40;;;;;;5487005;26;19932;-72
2024/04/19 01:06:33;;;;;;;;;;;17.60;53.10;;;;;;5486765;26;19928;-72
2024/04/19 01:08:59;;;;;;;;;;;17.60;53.30;;;;;;5486899;26;20223;-71
2024/04/19 01:11:25;;;;;;;;;;;18.00;53.40;;;;;;5486678;26;19928;-72
2024/04/19 01:13:52;;;;;;;;;;;17.80;53.30;;;;;;5486671;26;19928;-72
2024/04/19 01:16:18;;;;;;;;;;;17.20;53.00;;;;;;5486826;26;19939;-72
2024/04/19 01:18:44;;;;;;;;;;;17.60;53.30;;;;;;5489120;26;19934;-72
2024/04/19 01:21:10;;;;;;;;;;;17.60;53.30;;;;;;5490273;26;20278;-72
2024/04/19 01:23:36;;;;;;;;;;;19.30;54.10;;;;;;5490413;26;19927;-71
2024/04/19 01:26:03;;;;;;;;;;;17.60;53.20;;;;;;5490171;26;19928;-72
2024/04/19 01:28:28;;;;;;;;;;;17.60;53.40;;;;;;5490008;26;19936;-72
2024/04/19 01:30:54;;;;;;;;;;;17.60;53.60;;;;;;5490051;26;19928;-72
2024/04/19 01:33:19;;;;;;;;;;;17.50;53.60;;;;;;5490618;26;19935;-72
2024/04/19 01:35:45;;;;;;;;;;;17.60;53.60;;;;;;5490118;26;19938;-72
2024/04/19 01:38:11;;;;;;;;;;;17.60;53.50;;;;;;5490186;26;20169;-72
2024/04/19 01:40:36;;;;;;;;;;;17.50;53.70;;;;;;5490064;26;19936;-72
2024/04/19 01:43:02;;;;;;;;;;;17.60;53.80;;;;;;5490208;26;20228;-71
2024/04/19 01:45:27;;;;;;;;;;;17.60;53.40;;;;;;5490083;26;19935;-72
2024/04/19 01:47:53;;;;;;;;;;;17.60;53.90;;;;;;5490378;26;19935;-71
2024/04/19 01:50:18;;;;;;;;;;;17.50;53.50;;;;;;5490106;26;19996;-71
2024/04/19 01:52:46;;;;;;;;;;;17.60;53.40;;;;;;5489867;26;19928;-72
2024/04/19 01:55:11;;;;;;;;;;;17.60;53.30;;;;;;5489674;26;19963;-71
2024/04/19 01:57:37;;;;;;;;;;;17.60;53.70;;;;;;5489980;26;20052;-72
2024/04/19 02:00:02;;;;;;;;;;;17.50;53.90;;;;;;5490029;26;19935;-72
2024/04/19 02:02:28;;;;;;;;;;;17.60;53.10;;;;;;5490510;26;19996;-71
2024/04/19 02:04:54;;;;;;;;;;;17.40;53.70;;;;;;5489864;26;19934;-72
2024/04/19 02:07:19;;;;;;;;;;;17.50;53.60;;;;;;5489732;26;19928;-71
2024/04/19 02:09:45;;;;;;;;;;;17.50;54.00;;;;;;5489976;26;20314;-71
2024/04/19 02:12:11;;;;;;;;;;;17.50;53.90;;;;;;5489907;26;19940;-72
2024/04/19 02:14:36;;;;;;;;;;;17.50;54.00;;;;;;5489984;26;19935;-78
2024/04/19 02:17:02;;;;;;;;;;;17.50;53.90;;;;;;5489979;26;20448;-77
2024/04/19 02:19:35;;;;;;;;;;;17.50;53.70;;;;;;5490003;26;20383;-78
2024/04/19 02:22:01;;;;;;;;;;;17.50;54.10;;;;;;5489838;26;19932;-78
2024/04/19 02:24:27;;;;;;;;;;;17.70;54.10;;;;;;5489795;26;19928;-78
2024/04/19 02:26:53;;;;;;;;;;;17.40;54.20;;;;;;5489624;26;20321;-78
2024/04/19 02:32:02;;;;;;;;;;;17.50;52.20;;;;;;5490290;26;20383;-78
2024/04/19 02:34:28;;;;;;;;;;;17.40;53.90;;;;;;5489365;26;19939;-77
2024/04/19 02:36:53;;;;;;;;;;;17.40;54.20;;;;;;5489875;26;20351;-78
2024/04/19 02:39:19;;;;;;;;;;;17.40;54.30;;;;;;5489587;26;19991;-78
2024/04/19 02:41:44;;;;;;;;;;;17.40;54.10;;;;;;5489763;26;20262;-78
2024/04/19 02:44:10;;;;;;;;;;;17.40;54.20;;;;;;5489669;26;19955;-78
2024/04/19 02:46:35;;;;;;;;;;;17.40;54.30;;;;;;5489359;26;19928;-78
2024/04/19 02:49:01;;;;;;;;;;;17.40;54.30;;;;;;5489318;26;19940;-78
2024/04/19 02:51:26;;;;;;;;;;;17.30;54.20;;;;;;5489347;26;20362;-78
2024/04/19 02:53:52;;;;;;;;;;;17.20;53.80;;;;;;5489097;26;19935;-79
2024/04/19 02:56:18;;;;;;;;;;;17.40;54.40;;;;;;5489021;26;19936;-78
2024/04/19 02:58:44;;;;;;;;;;;17.30;54.40;;;;;;5489462;26;19928;-71
2024/04/19 03:01:10;;;;;;;;;;;17.30;54.50;;;;;;5487368;26;20363;-71
2024/04/19 03:03:36;;;;;;;;;;;17.30;54.40;;;;;;5489137;26;19935;-71
2024/04/19 03:06:02;;;;;;;;;;;17.30;54.60;;;;;;5489097;26;19928;-71
2024/04/19 03:08:28;;;;;;;;;;;17.30;54.20;;;;;;5488857;26;19938;-71
2024/04/19 03:10:54;;;;;;;;;;;17.30;54.50;;;;;;5488962;26;20294;-72
2024/04/19 03:13:20;;;;;;;;;;;17.40;54.50;;;;;;5489037;26;19928;-72
2024/04/19 03:15:46;;;;;;;;;;;16.90;54.50;;;;;;5489081;26;19996;-71
2024/04/19 03:18:12;;;;;;;;;;;17.30;54.70;;;;;;5489048;26;19928;-71
2024/04/19 03:20:38;;;;;;;;;;;17.30;54.80;;;;;;5488873;26;19934;-71
2024/04/19 03:23:04;;;;;;;;;;;17.30;54.50;;;;;;5488838;26;19935;-71
2024/04/19 03:25:30;;;;;;;;;;;17.30;54.70;;;;;;5488784;26;19928;-71
2024/04/19 03:27:56;;;;;;;;;;;17.30;54.40;;;;;;5489206;26;19968;-72
2024/04/19 03:30:37;;;;;;;;;;;17.20;54.60;;;;;;5488722;26;19936;-71
2024/04/19 03:33:03;;;;;;;;;;;17.30;52.50;;;;;;5489427;26;20247;-72
2024/04/19 03:35:29;;;;;;;;;;;17.30;54.60;;;;;;5488993;26;19942;-72
2024/04/19 03:37:55;;;;;;;;;;;17.20;54.90;;;;;;5488769;26;19928;-71
2024/04/19 03:40:21;;;;;;;;;;;17.20;55.00;;;;;;5488772;26;19937;-78
2024/04/19 03:42:48;;;;;;;;;;;17.20;54.90;;;;;;5488945;26;20502;-78
2024/04/19 03:47:59;;;;;;;;;;;17.00;54.60;;;;;;5488712;26;20304;-78
2024/04/19 03:50:25;;;;;;;;;;;17.10;55.30;;;;;;5488845;26;19928;-78
2024/04/19 03:52:52;;;;;;;;;;;17.20;55.40;;;;;;5488980;26;19935;-78
2024/04/19 03:55:18;;;;;;;;;;;17.00;54.80;;;;;;5488705;26;19940;-78
2024/04/19 03:57:44;;;;;;;;;;;17.20;55.30;;;;;;5489275;26;20017;-78
2024/04/19 04:00:10;;;;;;;;;;;17.30;55.30;;;;;;5488741;26;20316;-78
2024/04/19 04:02:36;;;;;;;;;;;17.30;55.00;;;;;;5488499;26;19928;-78
2024/04/19 04:05:02;;;;;;;;;;;17.30;55.30;;;;;;5488801;26;19939;-78
2024/04/19 04:07:28;;;;;;;;;;;17.40;55.00;;;;;;5488494;26;19936;-78
2024/04/19 04:09:56;;;;;;;;;;;17.30;55.40;;;;;;5487353;26;20227;-77
2024/04/19 04:12:22;;;;;;;;;;;17.30;55.50;;;;;;5488005;26;20008;-78
2024/04/19 04:14:48;;;;;;;;;;;17.30;55.30;;;;;;5487951;26;19973;-78
2024/04/19 04:17:14;;;;;;;;;;;17.30;55.40;;;;;;5488317;26;19931;-78
2024/04/19 04:19:39;;;;;;;;;;;17.30;55.70;;;;;;5488318;26;19977;-77
2024/04/19 04:22:05;;;;;;;;;;;17.30;55.60;;;;;;5488113;26;20365;-78
2024/04/19 04:24:30;;;;;;;;;;;17.30;55.60;;;;;;5488809;26;19932;-78
2024/04/19 04:26:56;;;;;;;;;;;17.30;55.40;;;;;;5487629;26;19928;-78
2024/04/19 04:29:21;;;;;;;;;;;17.30;55.50;;;;;;5487585;26;19936;-78
2024/04/19 04:31:47;;;;;;;;;;;17.30;55.40;;;;;;5487629;26;19927;-78
2024/04/19 04:34:12;;;;;;;;;;;17.30;55.70;;;;;;5487605;26;20358;-78
2024/04/19 04:36:38;;;;;;;;;;;17.30;56.50;;;;;;5487623;26;19932;-78
2024/04/19 04:39:05;;;;;;;;;;;17.30;55.80;;;;;;5487541;26;19928;-78
2024/04/19 04:41:30;;;;;;;;;;;17.30;55.80;;;;;;5487422;26;20390;-78
2024/04/19 04:43:56;;;;;;;;;;;17.10;55.60;;;;;;5487359;26;19935;-78
2024/04/19 04:46:21;;;;;;;;;;;17.40;55.90;;;;;;5487298;26;19935;-78
2024/04/19 04:48:47;;;;;;;;;;;17.30;55.90;;;;;;5487525;26;19932;-78
2024/04/19 04:51:12;;;;;;;;;;;17.30;56.50;;;;;;5487339;26;19928;-78
2024/04/19 04:53:38;;;;;;;;;;;17.40;55.80;;;;;;5489998;26;20022;-78
2024/04/19 04:56:03;;;;;;;;;;;17.40;55.90;;;;;;5490589;26;19938;-78
2024/04/19 04:58:29;;;;;;;;;;;17.40;55.40;;;;;;5490643;26;19928;-77
2024/04/19 05:00:57;;;;;;;;;;;17.30;56.00;;;;;;5490655;26;19977;-78
2024/04/19 05:03:23;;;;;;;;;;;17.50;53.50;;;;;;5490878;26;19927;-78
2024/04/19 05:05:48;;;;;;;;;;;17.40;56.20;;;;;;5490676;26;19934;-77
2024/04/19 05:08:14;;;;;;;;;;;17.40;56.10;;;;;;5490438;26;20021;-77
2024/04/19 05:10:39;;;;;;;;;;;17.40;56.20;;;;;;5490322;26;19928;-77
2024/04/19 05:13:05;;;;;;;;;;;17.40;56.20;;;;;;5490259;26;19928;-78
2024/04/19 05:15:30;;;;;;;;;;;17.40;56.40;;;;;;5490288;26;19928;-78
2024/04/19 05:17:56;;;;;;;;;;;17.30;56.30;;;;;;5490452;26;20273;-78
2024/04/19 05:20:21;;;;;;;;;;;17.40;56.60;;;;;;5490475;26;19996;-78
2024/04/19 05:22:47;;;;;;;;;;;17.40;56.40;;;;;;5490758;26;19927;-71
2024/04/19 05:25:13;;;;;;;;;;;17.40;56.70;;;;;;5490023;26;20335;-71
2024/04/19 05:27:38;;;;;;;;;;;17.40;56.60;;;;;;5490130;26;19928;-71
2024/04/19 05:30:04;;;;;;;;;;;17.40;56.80;;;;;;5490054;26;19939;-71
2024/04/19 05:32:30;;;;;;;;;;;17.40;56.60;;;;;;5488344;26;19928;-71
2024/04/19 05:34:55;;;;;;;;;;;17.50;57.10;;;;;;5490139;26;19935;-71
2024/04/19 05:37:21;;;;;;;;;;;17.40;56.90;;;;;;5489964;26;20018;-71
2024/04/19 05:39:46;;;;;;;;;;;17.40;57.10;;;;;;5489958;26;19956;-71
2024/04/19 05:42:12;;;;;;;;;;;17.40;57.00;;;;;;5489837;26;20334;-71
2024/04/19 05:44:37;;;;;;;;;;;17.60;58.10;;;;;;5489811;26;19943;-71
2024/04/19 05:47:03;;;;;;;;;;;17.40;57.20;;;;;;5490076;26;19948;-71
2024/04/19 05:49:28;;;;;;;;;;;17.60;57.40;;;;;;5490288;26;19932;-71
2024/04/19 05:51:54;;;;;;;;;;;16.10;56.50;;;;;;5490291;26;19995;-71
2024/04/19 05:54:19;;;;;;;;;;;17.50;57.00;;;;;;5490020;26;19928;-71
2024/04/19 05:56:45;;;;;;;;;;;17.50;57.30;;;;;;5489883;26;19928;-71
2024/04/19 05:59:10;;;;;;;;;;;17.40;57.70;;;;;;5490105;26;19940;-71
2024/04/19 06:01:36;;;;;;;;;;;17.50;57.30;;;;;;5489903;26;20000;-71
2024/04/19 06:04:01;;;;;;;;;;;17.50;57.40;;;;;;5490182;26;19935;-78
2024/04/19 06:06:27;;;;;;;;;;;17.60;57.30;;;;;;5489686;26;19956;-78
2024/04/19 06:08:52;;;;;;;;;;;17.50;57.40;;;;;;5489818;26;20361;-77
2024/04/19 06:11:18;;;;;;;;;;;17.50;57.40;;;;;;5489734;26;20000;-77
2024/04/19 06:13:47;;;;;;;;;;;17.20;57.50;;;;;;5489996;26;19997;-77
2024/04/19 06:16:13;;;;;;;;;;;17.50;55.40;;;;;;5490140;26;19935;-77
2024/04/19 06:18:38;;;;;;;;;;;17.50;57.50;;;;;;5490531;26;19927;-77
2024/04/19 06:21:04;;;;;;;;;;;17.50;57.40;;;;;;5489928;26;20017;-77
2024/04/19 06:23:29;;;;;;;;;;;17.60;57.40;;;;;;5489592;26;19936;-78
2024/04/19 06:25:56;;;;;;;;;;;17.50;57.50;;;;;;5489978;26;20370;-78
2024/04/19 06:28:21;;;;;;;;;;;17.60;57.50;;;;;;5489454;26;19997;-78
2024/04/19 06:30:47;;;;;;;;;;;17.60;57.50;;;;;;5489981;26;19940;-77
2024/04/19 06:33:12;;;;;;;;;;;17.60;57.90;;;;;;5489848;26;20259;-72
2024/04/19 06:35:38;;;;;;;;;;;17.50;57.50;;;;;;5489337;26;19935;-71
2024/04/19 06:38:04;;;;;;;;;;;17.60;57.60;;;;;;5489536;26;19928;-71
2024/04/19 06:40:29;;;;;;;;;;;17.60;57.70;;;;;;5489363;26;19928;-72
2024/04/19 06:42:55;;;;;;;;;;;17.50;57.50;;;;;;5489444;26;20266;-71
2024/04/19 06:45:20;;;;;;;;;;;17.60;57.80;;;;;;5489203;26;20099;-71
2024/04/19 06:47:46;;;;;;;;;;;17.60;57.80;;;;;;5489290;26;19936;-71
2024/04/19 06:50:11;;;;;;;;;;;17.80;57.80;;;;;;5489135;26;19932;-71
2024/04/19 06:52:37;;;;;;;;;;;17.50;57.50;;;;;;5489320;26;19928;-70
2024/04/19 06:55:02;;;;;;;;;;;17.70;57.40;;;;;;5487053;26;19936;-70
2024/04/19 06:57:28;;;;;;;;;;;17.60;57.40;;;;;;5489034;26;19934;-71
2024/04/19 06:59:53;;;;;;;;;;;17.60;57.90;;;;;;5489065;26;19928;-72
2024/04/19 07:02:19;;;;;;;;;;;17.60;57.70;;;;;;5488677;26;19977;-71
2024/04/19 07:04:44;;;;;;;;;;;17.60;58.00;;;;;;5489417;26;19928;-71
2024/04/19 07:07:10;;;;;;;;;;;17.60;57.70;;;;;;5488685;26;19936;-72
2024/04/19 07:09:35;;;;;;;;;;;17.60;57.70;;;;;;5486657;26;19928;-71
2024/04/19 07:12:01;;;;;;;;;;;17.60;57.90;;;;;;5488365;26;19956;-71
2024/04/19 07:14:26;;;;;;;;;;;17.60;57.80;;;;;;5488762;26;20021;-71
2024/04/19 07:16:52;;;;;;;;;;;17.60;57.70;;;;;;5488074;26;19976;-72
2024/04/19 07:19:17;;;;;;;;;;;17.70;57.80;;;;;;5489197;26;19962;-71
2024/04/19 07:21:43;;;;;;;;;;;17.60;58.00;;;;;;5488837;26;20006;-71
2024/04/19 07:24:09;;;;;;;;;;;17.60;57.90;;;;;;5489041;26;19932;-71
2024/04/19 07:26:37;;;;;;;;;;;17.70;57.90;;;;;;5488758;26;19935;-71
2024/04/19 07:29:04;;;;;;;;;;;17.70;57.80;;;;;;5488772;26;19928;-71
2024/04/19 07:31:30;;;;;;;;;;;17.70;58.00;;;;;;5488766;26;19928;-71
2024/04/19 07:33:55;;;;;;;;;;;17.80;57.80;;;;;;5488787;26;19928;-71
2024/04/19 07:36:21;;;;;;;;;;;17.70;57.80;;;;;;5488824;26;20357;-71
2024/04/19 07:38:47;;;;;;;;;;;17.70;58.00;;;;;;5488389;26;20361;-71
2024/04/19 07:41:13;;;;;;;;;;;17.70;57.90;;;;;;5488853;26;20282;-71
2024/04/19 07:43:39;;;;;;;;;;;17.70;57.60;;;;;;5488736;26;19928;-72
2024/04/19 07:46:05;;;;;;;;;;;17.70;57.80;;;;;;5488476;26;20331;-71
2024/04/19 07:48:31;;;;;;;;;;;17.70;57.80;;;;;;5488092;26;19996;-71
2024/04/19 07:50:59;;;;;;;;;;;17.80;57.80;;;;;;5488699;26;19928;-71
2024/04/19 07:53:25;;;;;;;;;;;17.80;57.30;;;;;;5488591;26;20223;-72
2024/04/19 07:55:51;;;;;;;;;;;17.80;57.60;;;;;;5488511;26;19975;-71
2024/04/19 07:58:16;;;;;;;;;;;17.70;57.90;;;;;;5488497;26;20258;-71
2024/04/19 08:00:44;;;;;;;;;;;17.80;57.80;;;;;;5488599;26;19927;-72
2024/04/19 08:03:09;;;;;;;;;;;17.80;57.90;;;;;;5488444;26;19939;-71
2024/04/19 08:05:35;;;;;;;;;;;17.60;57.50;;;;;;5488000;26;20371;-72
2024/04/19 08:08:01;;;;;;;;;;;17.80;57.80;;;;;;5487729;26;19937;-71
2024/04/19 08:10:27;;;;;;;;;;;17.80;57.60;;;;;;5488056;26;19956;-72
2024/04/19 08:12:53;;;;;;;;;;;17.80;57.80;;;;;;5487695;26;19985;-71
2024/04/19 08:15:19;;;;;;;;;;;17.80;57.50;;;;;;5487875;26;19942;-78
2024/04/19 08:17:45;;;;;;;;;;;17.80;57.70;;;;;;5487800;26;20358;-78
2024/04/19 08:20:11;;;;;;;;;;;17.80;57.30;;;;;;5487688;26;19932;-78
2024/04/19 08:22:37;;;;;;;;;;;18.10;57.80;;;;;;5487467;26;19928;-78
2024/04/19 08:25:03;;;;;;;;;;;17.80;57.50;;;;;;5487641;26;19927;-78
2024/04/19 08:27:28;;;;;;;;;;;17.80;57.10;;;;;;5486135;26;20374;-76
2024/04/19 08:29:54;;;;;;;;;;;17.90;57.60;;;;;;5487951;26;20269;-76
2024/04/19 08:32:20;;;;;;;;;;;17.80;57.70;;;;;;5487577;26;19934;-77
2024/04/19 08:34:52;;;;;;;;;;;17.80;57.60;;;;;;5487587;26;19939;-77
2024/04/19 08:37:18;;;;;;;;;;;17.90;55.20;;;;;;5487932;26;19928;-76
2024/04/19 08:39:44;;;;;;;;;;;17.80;57.50;;;;;;5487279;26;19938;-78
2024/04/19 08:42:12;;;;;;;;;;;17.80;57.70;;;;;;5488514;26;19996;-79
2024/04/19 08:44:42;;;;;;;;;;;17.80;57.60;;;;;;5492521;26;19951;-79
2024/04/19 08:47:09;;;;;;;;;;;17.90;56.70;;;;;;5487338;26;19928;-76
2024/04/19 08:49:36;;;;;;;;;;;18.10;57.00;;;;;;5487698;26;19996;-85
2024/04/19 08:52:02;;;;;;;;;;;17.90;56.90;;;;;;5487626;26;19928;-78
2024/04/19 08:54:31;;;;;;;;;;;18.00;56.60;;;;;;5487540;26;19996;-78
2024/04/19 08:56:58;;;;;;;;;;;17.90;56.80;;;;;;5487317;26;20412;-78
2024/04/19 08:59:23;;;;;;;;;;;18.20;56.90;;;;;;5487456;26;20123;-77
2024/04/19 09:01:49;;;;;;;;;;;18.00;57.30;;;;;;5486711;26;19986;-76
2024/04/19 09:04:15;;;;;;;;;;;18.00;57.10;;;;;;5486941;26;19936;-76
2024/04/19 09:06:40;;;;;;;;;;;18.00;57.20;;;;;;5486743;26;19928;-76
2024/04/19 09:09:06;;;;;;;;;;;18.00;56.80;;;;;;5486571;26;20274;-76
2024/04/19 09:11:37;;;;;;;;;;;18.10;56.90;;;;;;5486797;26;19952;-75
2024/04/19 09:14:02;;;;;;;;;;;18.00;56.90;;;;;;5486625;26;19998;-75
2024/04/19 09:16:30;;;;;;;;;;;18.00;56.50;;;;;;5486710;26;20363;-77
2024/04/19 09:18:56;;;;;;;;;;;18.00;56.90;;;;;;5486487;26;19928;-75
2024/04/19 09:21:22;;;;;;;;;;;18.10;56.80;;;;;;5487107;26;19940;-76
2024/04/19 09:23:48;;;;;;;;;;;18.00;57.10;;;;;;5486957;26;19938;-75
2024/04/19 09:26:16;;;;;;;;;;;18.10;56.90;;;;;;5486987;26;20084;-74
2024/04/19 09:28:42;;;;;;;;;;;18.10;56.90;;;;;;5486951;26;19936;-76
2024/04/19 09:31:08;;;;;;;;;;;18.10;56.80;;;;;;5486503;26;19929;-73
2024/04/19 09:33:35;;;;;;;;;;;18.10;56.80;;;;;;5486382;26;19928;-72
2024/04/19 09:36:00;;;;;;;;;;;18.20;56.90;;;;;;5486892;26;20366;-72
2024/04/19 09:38:26;;;;;;;;;;;18.60;57.10;;;;;;5486973;26;19935;-73
2024/04/19 09:40:52;;;;;;;;;;;18.20;57.10;;;;;;5490164;26;19934;-72
2024/04/19 09:43:20;;;;;;;;;;;18.10;56.50;;;;;;5490034;26;19935;-72
2024/04/19 09:45:48;;;;;;;;;;;18.20;56.80;;;;;;5489994;26;19928;-72
2024/04/19 09:48:17;;;;;;;;;;;18.20;56.50;;;;;;5488051;26;19935;-72
2024/04/19 09:50:49;;;;;;;;;;;17.80;54.70;;;;;;5489863;26;19989;-72
2024/04/19 09:53:16;;;;;;;;;;;18.30;56.10;;;;;;5489761;26;19928;-72
2024/04/19 09:55:52;;;;;;;;;;;18.20;56.30;;;;;;5489282;26;19935;-73
2024/04/19 09:58:18;;;;;;;;;;;18.30;54.70;;;;;;5489800;26;20250;-78
2024/04/19 10:00:45;;;;;;;;;;;18.70;56.40;;;;;;5490132;26;20374;-74
2024/04/19 10:03:13;;;;;;;;;;;18.40;56.10;;;;;;5489515;26;19960;-75
2024/04/19 10:05:39;;;;;;;;;;;18.40;56.10;;;;;;5489469;26;19928;-76
2024/04/19 10:08:04;;;;;;;;;;;18.40;55.90;;;;;;5489534;26;19934;-75
2024/04/19 10:10:30;;;;;;;;;;;18.50;56.00;;;;;;5489929;26;19928;-76
2024/04/19 10:12:55;;;;;;;;;;;18.50;56.10;;;;;;5489514;26;19935;-75
2024/04/19 10:15:21;;;;;;;;;;;18.40;56.00;;;;;;5489782;26;19934;-76
2024/04/19 10:17:48;;;;;;;;;;;18.40;56.10;;;;;;5489747;26;19934;-76
2024/04/19 10:20:14;;;;;;;;;;;18.40;56.50;;;;;;5490016;26;19936;-78
2024/04/19 10:22:42;;;;;;;;;;;18.50;56.40;;;;;;5489620;26;20370;-75
2024/04/19 10:25:07;;;;;;;;;;;18.50;56.40;;;;;;5489658;26;19928;-77
2024/04/19 10:27:34;;;;;;;;;;;18.50;56.40;;;;;;5489516;26;19936;-77
2024/04/19 10:30:03;;;;;;;;;;;18.50;56.80;;;;;;5490269;26;19932;-76
2024/04/19 10:32:29;;;;;;;;;;;18.50;56.40;;;;;;5489769;26;19928;-76
2024/04/19 10:34:55;;;;;;;;;;;18.50;56.60;;;;;;5489549;26;19935;-75
2024/04/19 10:37:21;;;;;;;;;;;18.50;56.60;;;;;;5489499;26;19928;-75
2024/04/19 10:39:47;;;;;;;;;;;18.50;56.60;;;;;;5489471;26;19934;-77
2024/04/19 10:42:17;;;;;;;;;;;18.70;57.70;;;;;;5489778;26;19960;-77
2024/04/19 10:44:46;;;;;;;;;;;18.50;56.70;;;;;;5489343;26;19928;-76
2024/04/19 10:47:12;;;;;;;;;;;18.50;56.80;;;;;;5489447;26;19934;-76
2024/04/19 10:49:38;;;;;;;;;;;18.60;56.90;;;;;;5488775;26;20067;-76
2024/04/19 10:52:04;;;;;;;;;;;18.50;56.50;;;;;;5488639;26;19973;-75
2024/04/19 10:54:30;;;;;;;;;;;18.50;56.40;;;;;;5489507;26;19997;-72
2024/04/19 10:56:58;;;;;;;;;;;18.50;56.40;;;;;;5489259;26;19952;-74
2024/04/19 10:59:24;;;;;;;;;;;18.60;56.30;;;;;;5489485;26;19934;-74
2024/04/19 11:01:50;;;;;;;;;;;18.60;56.60;;;;;;5488748;26;19928;-74
2024/04/19 11:04:16;;;;;;;;;;;18.60;56.10;;;;;;5488842;26;19928;-74
2024/04/19 11:06:41;;;;;;;;;;;18.60;56.50;;;;;;5488714;26;19939;-74
2024/04/19 11:09:07;;;;;;;;;;;18.70;56.20;;;;;;5488488;26;19935;-74
2024/04/19 11:11:37;;;;;;;;;;;18.70;56.10;;;;;;5487766;26;19940;-74
2024/04/19 11:14:09;;;;;;;;;;;18.70;56.10;;;;;;5485862;26;20257;-74
2024/04/19 11:16:34;;;;;;;;;;;18.80;54.40;;;;;;5488472;26;19935;-74
2024/04/19 11:19:00;;;;;;;;;;;18.70;55.80;;;;;;5488503;26;20331;-74
2024/04/19 11:21:26;;;;;;;;;;;18.80;55.90;;;;;;5488464;26;19940;-74
2024/04/19 11:23:51;;;;;;;;;;;18.90;55.80;;;;;;5488368;26;19928;-74
2024/04/19 11:26:20;;;;;;;;;;;18.90;55.50;;;;;;5488867;26;19928;-73
2024/04/19 11:28:48;;;;;;;;;;;19.00;55.50;;;;;;5486295;26;19936;-73
2024/04/19 11:31:14;;;;;;;;;;;19.10;54.50;;;;;;5488476;26;19928;-72
2024/04/19 11:33:40;;;;;;;;;;;19.10;55.10;;;;;;5488160;26;19932;-72
2024/04/19 11:36:09;;;;;;;;;;;19.10;55.30;;;;;;5488223;26;19996;-72
2024/04/19 11:38:35;;;;;;;;;;;19.10;53.60;;;;;;5488532;26;19977;-72
2024/04/19 11:41:00;;;;;;;;;;;19.10;55.20;;;;;;5488003;26;20370;-72
2024/04/19 11:43:26;;;;;;;;;;;19.10;55.20;;;;;;5488361;26;19928;-72
2024/04/19 11:45:52;;;;;;;;;;;19.10;55.20;;;;;;5488184;26;19957;-72
2024/04/19 11:48:18;;;;;;;;;;;19.10;55.30;;;;;;5488279;26;19934;-72
2024/04/19 11:50:44;;;;;;;;;;;19.10;55.60;;;;;;5488245;26;19976;-72
2024/04/19 11:53:10;;;;;;;;;;;;;;;;;;5488335;26;19935;-72
2024/04/19 11:55:35;;;;;;;;;;;19.00;53.50;;;;;;5488851;26;20263;-72
2024/04/19 11:58:03;;;;;;;;;;;19.00;55.60;;;;;;5488175;26;19928;-72
2024/04/19 12:00:28;;;;;;;;;;;19.00;55.70;;;;;;5487923;26;20262;-72
2024/04/19 12:02:59;;;;;;;;;;;19.00;55.70;;;;;;5487885;26;19932;-72
2024/04/19 12:05:25;;;;;;;;;;;19.00;56.00;;;;;;5488188;26;19935;-72
2024/04/19 12:07:51;;;;;;;;;;;19.00;55.80;;;;;;5487954;26;20263;-72
2024/04/19 12:10:16;;;;;;;;;;;19.00;55.80;;;;;;5488094;26;19935;-72
2024/04/19 12:12:42;;;;;;;;;;;19.10;55.60;;;;;;5488088;26;19939;-74
2024/04/19 12:15:08;;;;;;;;;;;19.30;55.00;;;;;;5488190;26;19999;-72
2024/04/19 12:17:33;;;;;;;;;;;19.40;54.80;;;;;;5488087;26;19932;-72
2024/04/19 12:19:59;;;;;;;;;;;19.50;54.90;;;;;;5488002;26;19935;-72
2024/04/19 12:22:25;;;;;;;;;;;19.60;54.10;;;;;;5488056;26;19935;-72
2024/04/19 12:24:52;;;;;;;;;;;19.60;54.20;;;;;;5488016;26;19927;-72
2024/04/19 12:27:17;;;;;;;;;;;19.60;54.40;;;;;;5487876;26;19932;-72
2024/04/19 12:29:45;;;;;;;;;;;19.50;54.40;;;;;;5487722;26;19935;-72
2024/04/19 12:32:11;;;;;;;;;;;19.50;54.20;;;;;;5487876;26;19961;-72
2024/04/19 12:34:38;;;;;;;;;;;19.40;54.30;;;;;;5487778;26;19928;-72
2024/04/19 12:37:04;;;;;;;;;;;19.40;54.70;;;;;;5487886;26;20214;-72
2024/04/19 12:39:29;;;;;;;;;;;19.30;54.50;;;;;;5487327;26;20259;-72
2024/04/19 12:41:56;;;;;;;;;;;19.30;54.80;;;;;;5487822;26;19935;-72
2024/04/19 12:44:22;;;;;;;;;;;19.30;54.80;;;;;;5487380;26;19940;-72
2024/04/19 12:46:50;;;;;;;;;;;19.30;54.80;;;;;;5485358;26;20327;-72
2024/04/19 12:49:17;;;;;;;;;;;19.20;54.90;;;;;;5487416;26;19935;-72
2024/04/19 12:51:43;;;;;;;;;;;19.20;55.60;;;;;;5487214;26;19939;-72
2024/04/19 12:54:08;;;;;;;;;;;19.20;54.70;;;;;;5487169;26;19935;-71
2024/04/19 12:56:34;;;;;;;;;;;19.20;55.10;;;;;;5487341;26;19935;-72
2024/04/19 12:59:00;;;;;;;;;;;19.10;55.00;;;;;;5486993;26;19935;-72
2024/04/19 13:01:25;;;;;;;;;;;19.00;55.00;;;;;;5486912;26;19928;-72
2024/04/19 13:03:51;;;;;;;;;;;19.20;55.00;;;;;;5487237;26;20253;-72
2024/04/19 13:06:17;;;;;;;;;;;19.40;54.60;;;;;;5486872;26;19935;-72
2024/04/19 13:08:42;;;;;;;;;;;19.50;54.40;;;;;;5486741;26;19935;-72
2024/04/19 13:11:08;;;;;;;;;;;19.50;54.20;;;;;;5487387;26;19938;-72
2024/04/19 13:13:48;;;;;;;;;;;19.40;54.40;;;;;;5487655;26;19928;-73
2024/04/19 13:16:14;;;;;;;;;;;19.50;52.50;;;;;;5490414;26;19995;-72
2024/04/19 13:18:39;;;;;;;;;;;19.70;53.80;;;;;;5490449;26;19936;-73
2024/04/19 13:21:05;;;;;;;;;;;19.80;53.40;;;;;;5490305;26;20331;-72
2024/04/19 13:23:30;;;;;;;;;;;20.10;52.70;;;;;;5490418;26;19927;-72
2024/04/19 13:25:56;;;;;;;;;;;20.30;52.20;;;;;;5490212;26;19940;-73
2024/04/19 13:28:21;;;;;;;;;;;20.50;51.70;;;;;;5490190;26;19956;-73
2024/04/19 13:30:47;;;;;;;;;;;20.70;50.90;;;;;;5490276;26;19960;-72
2024/04/19 13:33:13;;;;;;;;;;;20.70;50.80;;;;;;5490435;26;19927;-72
2024/04/19 13:35:38;;;;;;;;;;;20.60;50.70;;;;;;5490278;26;19928;-72
2024/04/19 13:38:04;;;;;;;;;;;20.50;51.10;;;;;;5490434;26;19935;-73
2024/04/19 13:40:29;;;;;;;;;;;20.30;51.30;;;;;;5490697;26;19960;-72
2024/04/19 13:42:55;;;;;;;;;;;20.20;51.70;;;;;;5489985;26;19961;-72
2024/04/19 13:45:20;;;;;;;;;;;19.00;51.50;;;;;;5490096;26;19932;-73
2024/04/19 13:47:49;;;;;;;;;;;20.00;52.50;;;;;;5489866;26;19928;-73
2024/04/19 13:50:17;;;;;;;;;;;19.80;52.70;;;;;;5489741;26;19928;-73
2024/04/19 13:52:42;;;;;;;;;;;19.40;51.30;;;;;;5490015;26;20287;-72
2024/04/19 13:55:08;;;;;;;;;;;20.00;52.10;;;;;;5489920;26;19973;-72
2024/04/19 13:57:35;;;;;;;;;;;20.50;52.50;;;;;;5489924;26;19996;-72
2024/04/19 14:00:00;;;;;;;;;;;20.20;51.80;;;;;;5490154;26;20259;-73
2024/04/19 14:02:26;;;;;;;;;;;20.10;52.40;;;;;;5489799;26;19934;-72
2024/04/19 14:04:51;;;;;;;;;;;20.10;52.40;;;;;;5489555;26;19931;-72
2024/04/19 14:07:17;;;;;;;;;;;20.00;52.60;;;;;;5489538;26;19936;-72
2024/04/19 14:09:44;;;;;;;;;;;20.10;52.20;;;;;;5489738;26;19935;-73
2024/04/19 14:12:10;;;;;;;;;;;20.00;50.70;;;;;;5489327;26;20260;-72
2024/04/19 14:14:36;;;;;;;;;;;20.00;51.30;;;;;;5489401;26;19928;-72
2024/04/19 14:17:02;;;;;;;;;;;20.20;51.20;;;;;;5489410;26;19936;-73